createdAt,value
2022-12-04T00:01:30.226Z,10.60
2022-12-04T00:04:01.379Z,10.40
2022-12-04T00:06:30.316Z,10.70
2022-12-04T00:08:58.653Z,10.00
2022-12-04T00:11:31.052Z,10.70
2022-12-04T00:14:06.392Z,10.50
2022-12-04T00:16:36.103Z,10.50
2022-12-04T00:19:05.069Z,10.10
2022-12-04T00:21:33.550Z,10.00
2022-12-04T00:24:02.292Z,10.20
2022-12-04T00:26:33.690Z,9.80
2022-12-04T00:29:02.256Z,10.30
2022-12-04T00:31:31.953Z,9.60
2022-12-04T00:34:02.148Z,9.20
2022-12-04T00:36:30.991Z,9.70
2022-12-04T00:39:01.056Z,9.40
2022-12-04T00:41:33.016Z,10.00
2022-12-04T00:44:02.914Z,9.20
2022-12-04T00:46:31.893Z,9.30
2022-12-04T00:49:02.686Z,9.80
2022-12-04T00:51:31.452Z,8.70
2022-12-04T00:53:59.655Z,9.20
2022-12-04T00:56:30.142Z,9.50
2022-12-04T00:59:01.354Z,9.50
2022-12-04T01:01:31.522Z,9.60
2022-12-04T01:04:00.287Z,9.60
2022-12-04T01:06:33.991Z,10.30
2022-12-04T01:09:05.555Z,9.70
2022-12-04T01:11:34.207Z,9.60
2022-12-04T01:14:02.730Z,9.40
2022-12-04T01:16:36.859Z,10.10
2022-12-04T01:19:11.896Z,10.00
2022-12-04T01:21:41.454Z,9.80
2022-12-04T01:24:10.180Z,9.20
2022-12-04T01:26:38.514Z,9.60
2022-12-04T01:29:07.514Z,10.70
2022-12-04T01:31:36.266Z,10.10
2022-12-04T01:34:04.685Z,9.90
2022-12-04T01:36:33.253Z,10.60
2022-12-04T01:39:01.843Z,9.90
2022-12-04T01:41:32.369Z,10.30
2022-12-04T01:44:10.519Z,9.90
2022-12-04T01:46:40.913Z,10.00
2022-12-04T01:49:18.614Z,11.00
2022-12-04T01:51:53.843Z,10.90
2022-12-04T01:54:32.082Z,10.20
2022-12-04T01:57:14.266Z,10.10
2022-12-04T01:59:53.968Z,10.40
2022-12-04T02:02:30.247Z,10.20
2022-12-04T02:05:00.182Z,10.70
2022-12-04T02:07:29.347Z,10.70
2022-12-04T02:10:04.060Z,10.50
2022-12-04T02:12:56.755Z,10.30
2022-12-04T02:15:42.364Z,10.50
2022-12-04T02:18:24.581Z,10.50
2022-12-04T02:21:13.311Z,10.60
2022-12-04T02:24:20.999Z,10.30
2022-12-04T02:26:59.586Z,10.20
2022-12-04T02:29:44.286Z,10.60
2022-12-04T02:32:42.773Z,9.50
2022-12-04T02:35:39.100Z,10.80
2022-12-04T02:38:14.375Z,11.10
2022-12-04T02:40:58.387Z,10.60
2022-12-04T02:43:37.990Z,10.60
2022-12-04T02:46:16.942Z,11.10
2022-12-04T02:48:50.874Z,10.30
2022-12-04T02:51:26.061Z,10.50
2022-12-04T02:54:05.248Z,10.70
2022-12-04T02:56:46.394Z,10.70
2022-12-04T02:59:34.453Z,10.30
2022-12-04T03:02:17.357Z,10.70
2022-12-04T03:04:50.899Z,10.80
2022-12-04T03:07:47.571Z,10.60
2022-12-04T03:10:26.455Z,9.90
2022-12-04T03:13:15.604Z,10.50
2022-12-04T03:15:53.405Z,10.30
2022-12-04T03:18:31.001Z,10.20
2022-12-04T03:21:09.319Z,10.10
2022-12-04T03:23:59.505Z,10.70
2022-12-04T03:26:36.789Z,10.20
2022-12-04T03:29:18.407Z,10.00
2022-12-04T03:32:07.859Z,10.20
2022-12-04T03:34:56.914Z,10.10
2022-12-04T03:37:42.425Z,10.00
2022-12-04T03:40:38.776Z,10.00
2022-12-04T03:43:20.166Z,10.20
2022-12-04T03:46:18.133Z,9.70
2022-12-04T03:49:29.500Z,10.00
2022-12-04T03:52:06.962Z,10.00
2022-12-04T03:54:43.333Z,10.40
2022-12-04T03:57:24.510Z,10.10
2022-12-04T04:00:12.255Z,9.80
2022-12-04T04:02:56.433Z,10.30
2022-12-04T04:05:29.234Z,10.00
2022-12-04T04:08:27.644Z,10.60
2022-12-04T04:11:25.985Z,10.10
2022-12-04T04:14:35.792Z,9.40
2022-12-04T04:17:33.560Z,9.80
2022-12-04T04:20:30.941Z,9.90
2022-12-04T04:23:23.882Z,10.30
2022-12-04T04:25:55.150Z,10.00
2022-12-04T04:28:39.849Z,10.20
2022-12-04T04:31:37.277Z,10.10
2022-12-04T04:34:35.849Z,9.80
2022-12-04T04:37:47.977Z,10.00
2022-12-04T04:40:41.889Z,9.40
2022-12-04T04:43:24.961Z,9.30
2022-12-04T04:46:17.605Z,9.60
2022-12-04T04:48:52.615Z,8.70
2022-12-04T04:51:21.330Z,9.90
2022-12-04T04:53:54.235Z,8.70
2022-12-04T04:56:23.103Z,9.40
2022-12-04T04:58:51.436Z,9.40
2022-12-04T05:01:24.896Z,9.20
2022-12-04T05:03:53.295Z,9.00
2022-12-04T05:06:21.515Z,9.30
2022-12-04T05:08:50.106Z,9.20
2022-12-04T05:11:33.989Z,9.70
2022-12-04T05:14:02.428Z,8.90
2022-12-04T05:16:30.653Z,9.20
2022-12-04T05:19:18.512Z,9.40
2022-12-04T05:21:47.174Z,9.60
2022-12-04T05:24:15.358Z,9.50
2022-12-04T05:26:43.786Z,9.10
2022-12-04T05:29:11.957Z,9.20
2022-12-04T05:31:40.262Z,9.40
2022-12-04T05:34:08.819Z,9.50
2022-12-04T05:36:37.225Z,8.80
2022-12-04T05:39:06.201Z,8.30
2022-12-04T05:41:34.465Z,9.20
2022-12-04T05:44:02.840Z,8.80
2022-12-04T05:46:31.093Z,8.40
2022-12-04T05:48:59.487Z,8.60
2022-12-04T05:51:27.564Z,8.80
2022-12-04T05:53:55.736Z,8.90
2022-12-04T05:56:23.860Z,8.70
2022-12-04T05:58:51.879Z,8.60
2022-12-04T06:01:24.041Z,9.10
2022-12-04T06:03:52.644Z,8.70
2022-12-04T06:06:24.536Z,8.70
2022-12-04T06:08:56.470Z,8.10
2022-12-04T06:11:32.180Z,8.10
2022-12-04T06:14:03.561Z,8.40
2022-12-04T06:16:38.729Z,8.40
2022-12-04T06:19:12.530Z,8.30
2022-12-04T06:21:43.781Z,8.20
2022-12-04T06:24:24.418Z,8.50
2022-12-04T06:27:26.065Z,8.60
2022-12-04T06:29:46.771Z,8.00
2022-12-04T06:32:21.156Z,7.80
2022-12-04T06:34:54.957Z,8.70
2022-12-04T06:37:25.525Z,8.10
2022-12-04T06:39:53.853Z,8.40
2022-12-04T06:42:24.087Z,8.60
2022-12-04T06:44:53.117Z,8.10
2022-12-04T06:47:21.379Z,7.80
2022-12-04T06:49:51.673Z,7.80
2022-12-04T06:52:19.920Z,8.10
2022-12-04T06:54:50.635Z,7.50
2022-12-04T06:57:19.092Z,8.10
2022-12-04T06:59:47.284Z,8.40
2022-12-04T07:02:15.672Z,8.50
2022-12-04T07:04:45.477Z,8.30
2022-12-04T07:07:13.659Z,8.10
2022-12-04T07:09:42.751Z,7.70
2022-12-04T07:12:11.119Z,8.50
2022-12-04T07:14:39.824Z,7.60
2022-12-04T07:17:09.493Z,8.30
2022-12-04T07:19:39.089Z,7.30
2022-12-04T07:22:09.108Z,8.10
2022-12-04T07:24:37.938Z,8.30
2022-12-04T07:27:06.828Z,7.70
2022-12-04T07:29:35.528Z,8.00
2022-12-04T07:32:05.687Z,7.90
2022-12-04T07:34:36.162Z,7.80
2022-12-04T07:37:04.422Z,7.70
2022-12-04T07:39:32.995Z,8.40
2022-12-04T07:42:02.396Z,7.50
2022-12-04T07:44:34.979Z,7.50
2022-12-04T07:47:04.323Z,7.70
2022-12-04T07:49:33.099Z,7.90
2022-12-04T07:52:01.164Z,7.50
2022-12-04T07:54:29.558Z,7.70
2022-12-04T07:56:57.822Z,8.30
2022-12-04T07:59:26.108Z,7.50
2022-12-04T08:01:54.933Z,7.60
2022-12-04T08:04:23.389Z,7.90
2022-12-04T08:06:51.615Z,7.20
2022-12-04T08:09:19.924Z,8.60
2022-12-04T08:11:48.261Z,7.70
2022-12-04T08:14:16.441Z,8.20
2022-12-04T08:16:49.641Z,7.80
2022-12-04T08:19:22.291Z,8.10
2022-12-04T08:21:52.417Z,8.00
2022-12-04T08:24:20.689Z,7.50
2022-12-04T08:26:48.961Z,7.50
2022-12-04T08:29:16.997Z,8.10
2022-12-04T08:31:45.217Z,8.20
2022-12-04T08:34:13.713Z,7.90
2022-12-04T08:36:42.535Z,7.90
2022-12-04T08:39:13.214Z,8.30
2022-12-04T08:41:41.549Z,8.00
2022-12-04T08:44:11.015Z,7.50
2022-12-04T08:46:39.831Z,7.80
2022-12-04T08:49:08.015Z,7.60
2022-12-04T08:51:37.118Z,8.00
2022-12-04T08:54:09.003Z,7.40
2022-12-04T08:56:38.065Z,7.80
2022-12-04T08:59:07.146Z,7.60
2022-12-04T09:01:35.302Z,7.80
2022-12-04T09:04:03.629Z,7.60
2022-12-04T09:06:31.891Z,8.20
2022-12-04T09:08:59.963Z,7.90
2022-12-04T09:11:30.729Z,7.90
2022-12-04T09:13:59.893Z,7.70
2022-12-04T09:16:28.294Z,8.10
2022-12-04T09:18:56.752Z,8.00
2022-12-04T09:21:25.992Z,8.20
2022-12-04T09:23:54.227Z,7.90
2022-12-04T09:26:30.707Z,8.00
2022-12-04T09:29:02.159Z,7.80
2022-12-04T09:31:30.863Z,8.00
2022-12-04T09:34:00.349Z,8.00
2022-12-04T09:36:28.908Z,7.80
2022-12-04T09:38:58.556Z,7.60
2022-12-04T09:41:51.095Z,7.60
2022-12-04T09:44:25.396Z,7.90
2022-12-04T09:46:59.674Z,7.70
2022-12-04T09:49:56.085Z,8.00
2022-12-04T09:53:30.067Z,7.40
2022-12-04T09:55:58.458Z,7.70
2022-12-04T09:58:44.030Z,7.80
2022-12-04T10:01:52.267Z,7.40
2022-12-04T10:04:21.409Z,7.00
2022-12-04T10:06:55.248Z,7.50
2022-12-04T10:09:38.270Z,7.60
2022-12-04T10:12:51.486Z,7.30
2022-12-04T10:16:06.649Z,7.40
2022-12-04T10:19:03.334Z,7.70
2022-12-04T10:22:13.064Z,8.10
2022-12-04T10:24:56.804Z,8.40
2022-12-04T10:27:42.882Z,8.30
2022-12-04T10:30:21.339Z,9.00
2022-12-04T10:33:01.365Z,8.20
2022-12-04T10:35:33.213Z,8.60
2022-12-04T10:38:12.873Z,7.80
2022-12-04T10:40:49.292Z,8.00
2022-12-04T10:43:39.020Z,7.70
2022-12-04T10:46:15.423Z,7.80
2022-12-04T10:48:49.215Z,7.80
2022-12-04T10:51:21.521Z,7.70
2022-12-04T10:53:51.386Z,7.30
2022-12-04T10:56:26.335Z,7.20
2022-12-04T10:59:05.375Z,7.60
2022-12-04T11:01:35.708Z,8.00
2022-12-04T11:04:10.038Z,7.00
2022-12-04T11:06:38.880Z,7.50
2022-12-04T11:09:07.399Z,6.80
2022-12-04T11:11:36.154Z,6.70
2022-12-04T11:14:19.948Z,7.60
2022-12-04T11:17:00.545Z,7.30
2022-12-04T11:19:32.595Z,7.40
2022-12-04T11:22:16.457Z,7.10
2022-12-04T11:24:54.766Z,7.40
2022-12-04T11:27:35.606Z,6.70
2022-12-04T11:30:20.299Z,6.40
2022-12-04T11:32:49.506Z,6.40
2022-12-04T11:35:27.077Z,7.40
2022-12-04T11:38:14.828Z,6.50
2022-12-04T11:40:53.912Z,6.60
2022-12-04T11:43:27.848Z,6.80
2022-12-04T11:46:03.521Z,6.40
2022-12-04T11:48:43.251Z,6.40
2022-12-04T11:51:49.524Z,6.30
2022-12-04T11:54:51.098Z,6.70
2022-12-04T11:57:57.556Z,6.60
2022-12-04T12:00:27.708Z,6.60
2022-12-04T12:03:15.301Z,6.60
2022-12-04T12:05:54.238Z,6.00
2022-12-04T12:08:48.429Z,6.50
2022-12-04T12:11:34.613Z,6.90
2022-12-04T12:14:35.354Z,6.40
2022-12-04T12:17:53.500Z,6.30
2022-12-04T12:21:01.469Z,6.50
2022-12-04T12:23:50.775Z,6.50
2022-12-04T12:26:20.004Z,6.30
2022-12-04T12:29:14.108Z,6.30
2022-12-04T12:32:02.184Z,6.80
2022-12-04T12:34:41.128Z,6.90
2022-12-04T12:37:36.332Z,6.40
2022-12-04T12:43:31.289Z,6.80
2022-12-04T12:46:22.943Z,6.90
2022-12-04T12:49:12.860Z,7.10
2022-12-04T12:52:04.104Z,6.20
2022-12-04T12:54:52.511Z,6.30
2022-12-04T12:57:38.215Z,6.60
2022-12-04T13:00:19.908Z,6.90
2022-12-04T13:03:12.663Z,6.30
2022-12-04T13:05:46.564Z,6.30
2022-12-04T13:08:33.396Z,6.70
2022-12-04T13:11:11.053Z,6.00
2022-12-04T13:13:57.278Z,6.90
2022-12-04T13:17:02.329Z,6.90
2022-12-04T13:19:45.665Z,7.40
2022-12-04T13:23:03.988Z,6.80
2022-12-04T13:25:47.739Z,7.60
2022-12-04T13:28:28.604Z,7.50
2022-12-04T13:31:45.594Z,8.30
2022-12-04T13:34:53.116Z,8.80
2022-12-04T13:37:44.432Z,9.90
2022-12-04T13:40:18.443Z,9.50
2022-12-04T13:42:47.188Z,10.70
2022-12-04T13:45:32.619Z,10.20
2022-12-04T13:48:04.068Z,10.20
2022-12-04T13:50:39.202Z,9.90
2022-12-04T13:53:37.445Z,10.30
2022-12-04T13:56:10.306Z,10.50
2022-12-04T13:58:39.563Z,10.60
2022-12-04T14:01:31.077Z,10.80
2022-12-04T14:04:00.482Z,10.00
2022-12-04T14:06:42.851Z,9.90
2022-12-04T14:09:25.746Z,9.70
2022-12-04T14:12:01.482Z,9.80
2022-12-04T14:14:43.417Z,9.80
2022-12-04T14:17:30.992Z,9.90
2022-12-04T14:20:07.777Z,9.60
2022-12-04T14:22:41.073Z,9.40
2022-12-04T14:25:14.865Z,9.70
2022-12-04T14:27:45.442Z,10.50
2022-12-04T14:30:25.917Z,9.20
2022-12-04T14:33:06.086Z,9.30
2022-12-04T14:35:34.442Z,9.00
2022-12-04T14:38:06.727Z,9.30
2022-12-04T14:40:45.343Z,9.20
2022-12-04T14:43:24.029Z,9.20
2022-12-04T14:46:42.334Z,9.40
2022-12-04T14:49:45.035Z,9.90
2022-12-04T14:52:31.851Z,11.10
2022-12-04T14:55:31.696Z,11.20
2022-12-04T14:58:31.994Z,12.00
2022-12-04T15:01:17.166Z,11.10
2022-12-04T15:03:50.053Z,12.00
2022-12-04T15:06:26.870Z,10.60
2022-12-04T15:09:24.083Z,11.10
2022-12-04T15:12:17.549Z,11.00
2022-12-04T15:14:49.224Z,10.90
2022-12-04T15:17:19.325Z,10.70
2022-12-04T15:19:47.609Z,11.10
2022-12-04T15:22:27.505Z,11.00
2022-12-04T15:24:56.468Z,10.80
2022-12-04T15:27:32.017Z,10.20
2022-12-04T15:30:03.128Z,10.70
2022-12-04T15:32:32.899Z,10.10
2022-12-04T15:35:11.745Z,9.90
2022-12-04T15:37:43.936Z,8.80
2022-12-04T15:40:25.486Z,9.80
2022-12-04T15:42:55.195Z,9.90
2022-12-04T15:45:32.055Z,9.60
2022-12-04T15:48:01.416Z,9.60
2022-12-04T15:50:32.366Z,9.60
2022-12-04T15:53:15.859Z,9.70
2022-12-04T15:55:51.142Z,8.20
2022-12-04T15:58:38.476Z,9.50
2022-12-04T16:01:14.736Z,8.60
2022-12-04T16:03:42.951Z,9.00
2022-12-04T16:06:32.687Z,9.20
2022-12-04T16:09:27.669Z,9.10
2022-12-04T16:12:19.504Z,8.60
2022-12-04T16:14:47.784Z,8.80
2022-12-04T16:17:15.953Z,8.60
2022-12-04T16:19:46.895Z,9.00
2022-12-04T16:22:23.715Z,8.80
2022-12-04T16:24:53.071Z,8.90
2022-12-04T16:27:25.728Z,9.50
2022-12-04T16:29:55.457Z,8.70
2022-12-04T16:32:31.411Z,8.20
2022-12-04T16:35:01.708Z,8.60
2022-12-04T16:37:31.794Z,7.90
2022-12-04T16:40:00.146Z,8.60
2022-12-04T16:42:30.527Z,8.60
2022-12-04T16:44:59.095Z,8.90
2022-12-04T16:47:27.837Z,8.10
2022-12-04T16:49:55.973Z,8.50
2022-12-04T16:52:24.395Z,8.40
2022-12-04T16:54:52.452Z,8.30
2022-12-04T16:57:20.392Z,7.90
2022-12-04T16:59:48.432Z,8.20
2022-12-04T17:02:26.411Z,8.40
2022-12-04T17:04:57.750Z,8.10
2022-12-04T17:07:26.761Z,7.70
2022-12-04T17:09:55.025Z,8.00
2022-12-04T17:12:23.109Z,8.30
2022-12-04T17:14:51.176Z,8.00
2022-12-04T17:17:19.440Z,7.80
2022-12-04T17:19:47.581Z,7.80
2022-12-04T17:22:16.456Z,8.10
2022-12-04T17:24:50.257Z,7.60
2022-12-04T17:27:24.298Z,7.60
2022-12-04T17:29:52.403Z,8.20
2022-12-04T17:32:20.576Z,7.90
2022-12-04T17:34:49.263Z,7.70
2022-12-04T17:37:17.331Z,8.10
2022-12-04T17:39:45.821Z,8.30
2022-12-04T17:42:16.667Z,8.10
2022-12-04T17:44:45.957Z,7.90
2022-12-04T17:47:14.228Z,7.40
2022-12-04T17:49:42.736Z,8.00
2022-12-04T17:52:11.203Z,7.70
2022-12-04T17:54:39.373Z,8.20
2022-12-04T17:57:07.756Z,7.60
2022-12-04T17:59:35.865Z,8.20
2022-12-04T18:02:04.203Z,8.00
2022-12-04T18:04:32.371Z,7.70
2022-12-04T18:07:00.850Z,7.80
2022-12-04T18:09:29.345Z,7.80
2022-12-04T18:11:58.788Z,7.40
2022-12-04T18:14:28.146Z,7.50
2022-12-04T18:16:58.651Z,7.20
2022-12-04T18:19:29.985Z,7.60
2022-12-04T18:21:59.422Z,7.00
2022-12-04T18:24:28.224Z,7.60
2022-12-04T18:26:56.384Z,7.10
2022-12-04T18:29:27.014Z,7.10
2022-12-04T18:31:55.359Z,7.70
2022-12-04T18:34:24.287Z,7.50
2022-12-04T18:36:52.608Z,7.40
2022-12-04T18:39:24.802Z,7.20
2022-12-04T18:41:57.219Z,7.20
2022-12-04T18:44:26.231Z,7.30
2022-12-04T18:46:54.686Z,6.80
2022-12-04T18:49:22.751Z,7.50
2022-12-04T18:51:50.824Z,7.40
2022-12-04T18:54:23.630Z,7.70
2022-12-04T18:56:52.438Z,7.80
2022-12-04T18:59:24.193Z,6.90
2022-12-04T19:01:54.093Z,7.10
2022-12-04T19:04:24.635Z,7.20
2022-12-04T19:06:56.540Z,7.40
2022-12-04T19:10:08.774Z,7.00
2022-12-04T19:12:17.208Z,6.70
2022-12-04T19:14:45.350Z,7.60
2022-12-04T19:17:13.740Z,7.70
2022-12-04T19:19:41.744Z,7.30
2022-12-04T19:22:10.078Z,7.10
2022-12-04T19:24:38.175Z,7.20
2022-12-04T19:27:13.082Z,6.30
2022-12-04T19:29:43.609Z,6.80
2022-12-04T19:32:12.172Z,7.00
2022-12-04T19:34:40.982Z,7.40
2022-12-04T19:37:09.644Z,7.40
2022-12-04T19:39:37.935Z,7.20
2022-12-04T19:42:06.530Z,6.80
2022-12-04T19:44:51.211Z,7.40
2022-12-04T19:49:48.362Z,7.00
2022-12-04T19:52:16.741Z,7.50
2022-12-04T19:54:45.965Z,7.00
2022-12-04T19:57:14.885Z,7.20
2022-12-04T19:59:46.629Z,7.40
2022-12-04T20:02:15.794Z,7.20
2022-12-04T20:04:44.779Z,7.40
2022-12-04T20:07:13.980Z,7.50
2022-12-04T20:09:46.032Z,7.30
2022-12-04T20:12:17.065Z,7.80
2022-12-04T20:14:45.168Z,7.90
2022-12-04T20:17:13.503Z,7.50
2022-12-04T20:19:41.633Z,7.70
2022-12-04T20:22:09.723Z,7.80
2022-12-04T20:24:38.669Z,8.30
2022-12-04T20:27:06.871Z,7.40
2022-12-04T20:29:35.021Z,7.40
2022-12-04T20:32:03.099Z,7.90
2022-12-04T20:34:31.270Z,7.60
2022-12-04T20:36:59.441Z,7.40
2022-12-04T20:39:28.313Z,7.40
2022-12-04T20:41:56.504Z,7.60
2022-12-04T20:44:24.654Z,7.90
2022-12-04T20:46:53.483Z,7.90
2022-12-04T20:49:22.709Z,7.10
2022-12-04T20:51:52.227Z,7.90
2022-12-04T20:54:23.281Z,7.80
2022-12-04T20:56:53.441Z,7.30
2022-12-04T20:59:24.415Z,7.60
2022-12-04T21:01:53.131Z,7.40
2022-12-04T21:04:22.132Z,7.50
2022-12-04T21:06:50.366Z,8.20
2022-12-04T21:09:23.276Z,7.80
2022-12-04T21:11:55.015Z,7.40
2022-12-04T21:14:48.035Z,7.10
2022-12-04T21:17:19.756Z,7.10
2022-12-04T21:19:51.058Z,7.50
2022-12-04T21:22:20.019Z,7.50
2022-12-04T21:24:48.408Z,7.70
2022-12-04T21:27:21.050Z,7.40
2022-12-04T21:29:50.816Z,7.10
2022-12-04T21:32:20.334Z,7.20
2022-12-04T21:34:49.506Z,7.30
2022-12-04T21:37:17.536Z,7.80
2022-12-04T21:39:45.955Z,6.80
2022-12-04T21:42:33.379Z,7.50
2022-12-04T21:45:06.210Z,7.30
2022-12-04T21:47:37.595Z,6.90
2022-12-04T21:50:07.030Z,7.10
2022-12-04T21:52:35.190Z,7.00
2022-12-04T21:55:03.262Z,7.10
2022-12-04T21:57:32.079Z,7.20
2022-12-04T22:00:00.639Z,7.20
2022-12-04T22:02:29.229Z,6.70
2022-12-04T22:04:57.696Z,6.60
2022-12-04T22:07:25.872Z,6.40
2022-12-04T22:09:54.665Z,7.20
2022-12-04T22:15:11.592Z,6.60
2022-12-04T22:17:39.768Z,6.60
2022-12-04T22:20:09.125Z,6.70
2022-12-04T22:22:37.239Z,6.40
2022-12-04T22:25:06.174Z,6.50
2022-12-04T22:27:34.231Z,6.10
2022-12-04T22:30:02.706Z,5.90
2022-12-04T22:32:31.271Z,6.30
2022-12-04T22:34:59.259Z,6.10
2022-12-04T22:37:27.311Z,6.30
2022-12-04T22:39:56.400Z,6.10
2022-12-04T22:42:24.929Z,6.20
2022-12-04T22:44:53.065Z,5.50
2022-12-04T22:47:22.436Z,6.10
2022-12-04T22:49:52.126Z,6.10
2022-12-04T22:52:21.885Z,5.90
2022-12-04T22:54:52.929Z,5.80
2022-12-04T22:57:21.310Z,5.90
2022-12-04T22:59:49.785Z,5.50
2022-12-04T23:02:18.472Z,6.00
2022-12-04T23:04:47.104Z,6.10
2022-12-04T23:07:15.232Z,5.70
2022-12-04T23:09:43.598Z,5.70
2022-12-04T23:12:11.556Z,5.20
2022-12-04T23:14:39.855Z,5.30
2022-12-04T23:17:07.969Z,5.40
2022-12-04T23:19:36.306Z,5.10
2022-12-04T23:22:04.313Z,5.00
2022-12-04T23:24:33.420Z,4.90
2022-12-04T23:27:01.624Z,5.00
2022-12-04T23:29:52.280Z,5.10
2022-12-04T23:32:17.762Z,5.60
2022-12-04T23:34:46.144Z,6.40
2022-12-04T23:37:14.725Z,6.50
2022-12-04T23:39:42.761Z,6.30
2022-12-04T23:42:11.292Z,6.20
2022-12-04T23:44:39.465Z,6.00
2022-12-04T23:47:07.524Z,6.20
2022-12-04T23:49:35.925Z,5.80
2022-12-04T23:52:04.179Z,5.70
2022-12-04T23:54:35.064Z,6.10
2022-12-04T23:57:03.492Z,6.00
2022-12-04T23:59:31.684Z,5.60
